Time;durP1;ratioP1;P1;durP2;ratioP2;P2;SDS_P1;SDS_P2;PMS_P1;PMS_P2;Temp;Humidity;BMP_temperature;BMP_pressure;BME280_temperature;BME280_humidity;BME280_pressure;Samples;Min_cycle;Max_cycle;Signal;HPM_P1;HPM_P2
2021/07/30 00:01:18;;;;;;;9.05;3.88;;;16.20;73.20;;;;;;5092953;28;20097;-93
2021/07/30 00:03:45;;;;;;;8.60;4.10;;;16.20;73.30;;;;;;5089129;28;20086;-93
2021/07/30 00:06:25;;;;;;;10.55;3.63;;;16.10;73.40;;;;;;5090679;28;20040;-93
2021/07/30 00:08:52;;;;;;;13.95;4.10;;;16.10;73.50;;;;;;5090879;28;20081;-90
2021/07/30 00:11:19;;;;;;;9.43;4.35;;;16.10;73.60;;;;;;5090829;28;20089;-93
2021/07/30 00:13:45;;;;;;;11.68;4.10;;;16.10;73.70;;;;;;5093450;28;20060;-94
2021/07/30 00:16:12;;;;;;;9.88;4.15;;;16.00;73.70;;;;;;5096674;28;20103;-92
2021/07/30 00:18:39;;;;;;;9.02;4.05;;;16.00;73.70;;;;;;5093860;28;20040;-91
2021/07/30 00:21:06;;;;;;;9.57;4.00;;;16.00;73.80;;;;;;5094743;28;20132;-92
2021/07/30 00:23:33;;;;;;;12.40;4.00;;;15.90;73.80;;;;;;5094379;28;20426;-94
2021/07/30 00:26:01;;;;;;;11.73;4.10;;;15.90;73.80;;;;;;5094395;28;20059;-93
2021/07/30 00:28:28;;;;;;;10.30;3.67;;;15.90;73.90;;;;;;5095862;28;20054;-91
2021/07/30 00:30:55;;;;;;;8.77;3.58;;;15.90;73.90;;;;;;5123261;27;20055;-92
2021/07/30 00:33:22;;;;;;;9.25;3.80;;;15.90;73.90;;;;;;5093701;28;20131;-90
2021/07/30 00:35:49;;;;;;;13.23;4.30;;;15.90;73.90;;;;;;5094186;28;20043;-94
2021/07/30 00:38:16;;;;;;;8.60;4.18;;;15.90;74.00;;;;;;5094086;28;20048;-90
2021/07/30 00:40:43;;;;;;;11.88;4.35;;;15.80;74.00;;;;;;5094792;28;20044;-94
2021/07/30 00:43:10;;;;;;;8.00;3.83;;;15.90;74.10;;;;;;5093822;28;20097;-94
2021/07/30 00:45:38;;;;;;;10.40;3.83;;;15.80;74.10;;;;;;5092890;28;20048;-93
2021/07/30 00:48:06;;;;;;;7.43;3.78;;;15.80;74.00;;;;;;5093550;28;20574;-94
2021/07/30 00:50:34;;;;;;;8.85;3.85;;;15.80;74.00;;;;;;5093985;28;20278;-94
2021/07/30 00:53:01;;;;;;;12.43;4.00;;;15.80;74.00;;;;;;5094013;28;20081;-92
2021/07/30 00:55:28;;;;;;;13.63;4.95;;;15.80;74.00;;;;;;5095357;28;20547;-94
2021/07/30 00:57:55;;;;;;;10.88;3.75;;;15.70;74.10;;;;;;5093110;28;20112;-93
2021/07/30 01:00:22;;;;;;;9.05;3.75;;;15.70;74.20;;;;;;5093815;28;20044;-91
2021/07/30 01:02:49;;;;;;;12.50;4.15;;;15.60;74.30;;;;;;5093289;28;20393;-91
2021/07/30 01:05:17;;;;;;;8.75;3.47;;;15.60;74.30;;;;;;5093691;28;20094;-93
2021/07/30 01:07:44;;;;;;;11.07;4.32;;;15.60;74.30;;;;;;5093698;28;20044;-92
2021/07/30 01:10:11;;;;;;;13.15;4.30;;;15.60;74.40;;;;;;5095596;28;20485;-92
2021/07/30 01:12:38;;;;;;;10.02;4.60;;;15.60;74.50;;;;;;5093553;28;20052;-94
2021/07/30 01:15:05;;;;;;;9.93;4.32;;;15.60;74.60;;;;;;5093577;28;20113;-93
2021/07/30 01:17:32;;;;;;;8.73;3.85;;;15.50;74.60;;;;;;5093104;28;20471;-93
2021/07/30 01:19:59;;;;;;;10.27;3.70;;;15.50;74.60;;;;;;5092006;28;20545;-92
2021/07/30 01:22:37;;;;;;;12.98;3.90;;;15.40;74.70;;;;;;5095173;28;20386;-91
2021/07/30 01:25:04;;;;;;;9.38;3.92;;;15.40;74.70;;;;;;5094857;28;20086;-92
2021/07/30 01:27:31;;;;;;;10.48;4.40;;;15.40;74.70;;;;;;5093228;28;20048;-91
2021/07/30 01:29:58;;;;;;;12.52;4.10;;;15.40;74.70;;;;;;5092782;28;20493;-91
2021/07/30 01:32:25;;;;;;;9.43;4.22;;;15.40;74.90;;;;;;5092043;28;20052;-92
2021/07/30 01:34:52;;;;;;;12.25;4.35;;;15.40;74.90;;;;;;5093112;28;20048;-92
2021/07/30 01:37:19;;;;;;;8.52;4.15;;;15.40;74.90;;;;;;5094951;28;20052;-91
2021/07/30 01:39:45;;;;;;;14.63;4.13;;;15.30;75.00;;;;;;5092955;28;20077;-93
2021/07/30 01:42:12;;;;;;;10.32;4.22;;;15.30;75.10;;;;;;5092682;28;20093;-92
2021/07/30 01:44:39;;;;;;;10.45;4.30;;;15.20;75.20;;;;;;5092353;28;20094;-92
2021/07/30 01:47:07;;;;;;;10.90;4.32;;;15.20;75.30;;;;;;5092750;28;20112;-92
2021/07/30 01:49:34;;;;;;;9.57;3.85;;;15.20;75.30;;;;;;5093641;28;20048;-92
2021/07/30 01:52:01;;;;;;;11.50;4.45;;;15.20;75.40;;;;;;5094015;28;20044;-93
2021/07/30 01:54:28;;;;;;;16.67;4.63;;;15.20;75.40;;;;;;5092466;28;20102;-92
2021/07/30 01:56:55;;;;;;;10.68;4.30;;;15.20;75.50;;;;;;5092497;28;20036;-93
2021/07/30 01:59:21;;;;;;;9.45;4.30;;;15.10;75.40;;;;;;5091035;28;20070;-93
2021/07/30 02:01:48;;;;;;;11.45;4.13;;;15.20;75.40;;;;;;5092438;28;20056;-91
2021/07/30 02:04:18;;;;;;;12.40;3.90;;;15.10;75.40;;;;;;5093353;28;20051;-92
2021/07/30 02:06:45;;;;;;;9.15;4.43;;;15.10;75.50;;;;;;5092338;28;20497;-93
2021/07/30 02:09:12;;;;;;;13.45;4.40;;;15.00;75.50;;;;;;5092191;28;20105;-91
2021/07/30 02:11:43;;;;;;;13.93;4.55;;;15.00;75.50;;;;;;5092285;28;20101;-92
2021/07/30 02:14:16;;;;;;;18.48;5.03;;;15.00;75.60;;;;;;5091990;28;20040;-92
2021/07/30 02:16:48;;;;;;;10.90;4.47;;;15.00;75.80;;;;;;5092170;28;20043;-92
2021/07/30 02:19:17;;;;;;;16.85;4.63;;;15.00;75.80;;;;;;5094465;28;20052;-92
2021/07/30 02:21:45;;;;;;;12.35;4.65;;;14.90;75.80;;;;;;5092016;28;20048;-92
2021/07/30 02:24:12;;;;;;;8.68;4.32;;;14.90;75.90;;;;;;5091988;28;20066;-92
2021/07/30 02:26:39;;;;;;;13.73;4.53;;;14.90;75.90;;;;;;5091928;28;20044;-92
2021/07/30 02:29:06;;;;;;;14.57;5.20;;;14.90;75.90;;;;;;5092007;28;20048;-92
2021/07/30 02:31:34;;;;;;;13.07;4.32;;;14.90;75.90;;;;;;5092903;28;20043;-91
2021/07/30 02:34:01;;;;;;;15.02;5.05;;;14.90;75.90;;;;;;5093229;28;20109;-89
2021/07/30 02:36:28;;;;;;;10.63;4.35;;;14.90;75.90;;;;;;5091028;28;20043;-91
2021/07/30 02:38:54;;;;;;;11.73;4.78;;;14.90;76.00;;;;;;5090347;28;20093;-93
2021/07/30 02:41:21;;;;;;;14.40;4.38;;;14.90;76.10;;;;;;5091815;28;20052;-93
2021/07/30 02:43:48;;;;;;;10.48;4.70;;;15.00;76.10;;;;;;5091528;28;20118;-91
2021/07/30 02:46:16;;;;;;;14.45;4.70;;;14.90;76.20;;;;;;5093995;28;20048;-91
2021/07/30 02:48:44;;;;;;;14.88;5.05;;;14.90;76.20;;;;;;5091338;28;20056;-92
2021/07/30 02:51:12;;;;;;;12.52;4.90;;;14.90;76.20;;;;;;5091855;28;20040;-92
2021/07/30 02:53:39;;;;;;;15.43;5.40;;;14.90;76.30;;;;;;5091520;28;20097;-93
2021/07/30 02:56:07;;;;;;;12.00;4.60;;;14.90;76.50;;;;;;5090659;28;20501;-94
2021/07/30 02:58:34;;;;;;;11.77;4.82;;;14.90;76.50;;;;;;5092250;28;20052;-93
2021/07/30 03:01:02;;;;;;;15.55;4.80;;;14.90;76.50;;;;;;5092858;28;20052;-92
2021/07/30 03:03:29;;;;;;;8.52;4.75;;;14.90;76.50;;;;;;5091345;28;20055;-89
2021/07/30 03:06:00;;;;;;;14.13;4.80;;;14.90;76.60;;;;;;5091373;28;20043;-90
2021/07/30 03:08:27;;;;;;;15.35;5.10;;;14.90;76.60;;;;;;5091313;28;20467;-93
2021/07/30 03:10:55;;;;;;;15.55;4.93;;;14.90;76.70;;;;;;5072775;28;20041;-93
2021/07/30 03:13:22;;;;;;;16.90;5.25;;;14.90;76.80;;;;;;5088941;28;20505;-88
2021/07/30 03:15:53;;;;;;;14.25;4.80;;;14.90;76.80;;;;;;5091512;28;20044;-92
2021/07/30 03:18:21;;;;;;;14.10;5.45;;;14.90;76.80;;;;;;5089715;28;20089;-93
2021/07/30 03:20:48;;;;;;;11.27;5.72;;;14.90;76.90;;;;;;5091100;28;20044;-92
2021/07/30 03:23:15;;;;;;;14.15;4.93;;;14.90;77.00;;;;;;5091199;28;20105;-92
2021/07/30 03:25:42;;;;;;;15.45;4.95;;;14.90;77.00;;;;;;5090910;28;20048;-92
2021/07/30 03:28:09;;;;;;;13.65;5.10;;;14.90;77.00;;;;;;5093254;28;20048;-92
2021/07/30 03:30:36;;;;;;;11.98;4.97;;;14.90;77.00;;;;;;5091151;28;20094;-92
2021/07/30 03:33:03;;;;;;;13.15;4.82;;;14.90;77.00;;;;;;5091150;28;20455;-93
2021/07/30 03:35:30;;;;;;;11.18;4.38;;;14.90;77.00;;;;;;5091083;28;20089;-93
2021/07/30 03:37:57;;;;;;;14.60;4.80;;;14.90;77.00;;;;;;5091095;28;20052;-93
2021/07/30 03:40:24;;;;;;;11.05;4.57;;;14.90;77.00;;;;;;5092827;28;20101;-90
2021/07/30 03:42:51;;;;;;;17.45;4.30;;;14.90;77.00;;;;;;5088690;28;20052;-91
2021/07/30 03:45:18;;;;;;;9.63;4.35;;;14.90;77.10;;;;;;5090905;28;20101;-91
2021/07/30 03:47:45;;;;;;;12.68;5.47;;;14.90;77.10;;;;;;5091973;28;20048;-91
2021/07/30 03:50:12;;;;;;;10.00;4.53;;;14.90;77.20;;;;;;5094905;28;20044;-90
2021/07/30 03:52:39;;;;;;;16.67;5.22;;;14.90;77.20;;;;;;5095413;28;20048;-90
2021/07/30 03:55:08;;;;;;;15.52;4.97;;;14.80;77.20;;;;;;5094280;28;20052;-88
2021/07/30 03:57:35;;;;;;;14.52;5.00;;;14.80;77.20;;;;;;5092273;28;20481;-90
2021/07/30 04:00:03;;;;;;;11.75;4.88;;;14.80;77.30;;;;;;5094725;28;20085;-91
2021/07/30 04:02:30;;;;;;;12.15;5.47;;;14.80;77.30;;;;;;5094801;28;20052;-90
2021/07/30 04:04:58;;;;;;;11.50;5.43;;;14.80;77.40;;;;;;5094600;28;20044;-92
2021/07/30 04:07:25;;;;;;;15.50;5.75;;;14.80;77.50;;;;;;5096630;28;20051;-89
2021/07/30 04:09:54;;;;;;;18.17;5.20;;;14.80;77.60;;;;;;5094497;28;20060;-89
2021/07/30 04:12:22;;;;;;;15.60;5.07;;;14.70;77.60;;;;;;5094395;28;20040;-89
2021/07/30 04:14:49;;;;;;;16.80;5.60;;;14.80;77.70;;;;;;5094424;28;20052;-91
2021/07/30 04:17:16;;;;;;;11.05;4.50;;;14.70;77.70;;;;;;5094677;28;20048;-91
2021/07/30 04:19:43;;;;;;;16.17;5.63;;;14.70;77.70;;;;;;5094718;28;20048;-92
2021/07/30 04:22:12;;;;;;;12.60;4.88;;;14.70;77.70;;;;;;5096611;28;20052;-93
2021/07/30 04:24:39;;;;;;;12.05;5.18;;;14.70;77.70;;;;;;5093949;28;20044;-91
2021/07/30 04:27:07;;;;;;;10.15;4.78;;;14.70;77.70;;;;;;5094467;28;20537;-93
2021/07/30 04:29:41;;;;;;;10.23;4.78;;;14.70;77.60;;;;;;5094451;28;20513;-92
2021/07/30 04:32:09;;;;;;;10.00;4.28;;;14.70;77.70;;;;;;5094525;28;20044;-90
2021/07/30 04:34:39;;;;;;;12.95;5.00;;;14.70;77.70;;;;;;5095394;28;20059;-91
2021/07/30 04:37:07;;;;;;;15.48;4.80;;;14.80;77.70;;;;;;5095003;28;20097;-92
2021/07/30 04:39:35;;;;;;;10.88;4.93;;;14.80;77.70;;;;;;5093923;28;20052;-93
2021/07/30 04:42:04;;;;;;;10.40;4.85;;;14.80;77.70;;;;;;5094212;28;20040;-91
2021/07/30 04:44:34;;;;;;;10.60;4.97;;;14.80;77.70;;;;;;5093135;28;20056;-91
2021/07/30 04:47:02;;;;;;;10.77;4.93;;;14.80;77.80;;;;;;5094405;28;20048;-93
2021/07/30 04:49:29;;;;;;;13.05;4.85;;;14.80;77.80;;;;;;5095440;28;20459;-93
2021/07/30 04:52:02;;;;;;;11.73;4.53;;;14.80;77.80;;;;;;5095342;28;20044;-95
2021/07/30 04:54:29;;;;;;;8.77;4.68;;;14.80;77.80;;;;;;5093783;28;20048;-92
2021/07/30 04:56:56;;;;;;;12.02;4.72;;;14.80;77.80;;;;;;5092600;28;20047;-91
2021/07/30 04:59:23;;;;;;;18.30;5.00;;;14.80;77.80;;;;;;5092918;28;20459;-92
2021/07/30 05:01:50;;;;;;;14.25;4.57;;;14.80;78.00;;;;;;5093508;28;20048;-93
2021/07/30 05:04:18;;;;;;;10.57;4.93;;;14.90;78.00;;;;;;5095800;28;20056;-91
2021/07/30 05:06:45;;;;;;;8.88;5.00;;;14.80;78.00;;;;;;5093168;28;20087;-92
2021/07/30 05:09:12;;;;;;;11.88;5.50;;;14.90;78.10;;;;;;5091982;28;20044;-91
2021/07/30 05:11:39;;;;;;;10.23;4.43;;;14.90;78.10;;;;;;5093205;28;20101;-91
2021/07/30 05:14:06;;;;;;;9.93;4.70;;;14.90;78.10;;;;;;5091891;28;20045;-89
2021/07/30 05:16:33;;;;;;;9.95;4.55;;;14.90;78.00;;;;;;5093484;28;20091;-89
2021/07/30 05:19:00;;;;;;;9.57;4.80;;;14.90;78.00;;;;;;5094581;28;20063;-90
2021/07/30 05:21:27;;;;;;;10.13;4.70;;;14.90;78.00;;;;;;5093234;28;20094;-93
2021/07/30 05:23:54;;;;;;;10.02;4.88;;;14.90;78.10;;;;;;5092724;28;20048;-91
2021/07/30 05:26:21;;;;;;;9.50;4.63;;;14.90;78.20;;;;;;5092923;28;20051;-90
2021/07/30 05:28:48;;;;;;;12.90;5.53;;;14.90;78.20;;;;;;5093051;28;20166;-89
2021/07/30 05:31:16;;;;;;;11.57;5.80;;;14.90;78.30;;;;;;5093938;28;20052;-91
2021/07/30 05:33:43;;;;;;;11.77;5.18;;;14.90;78.30;;;;;;5093211;28;20600;-93
2021/07/30 05:36:18;;;;;;;17.17;5.97;;;14.90;78.30;;;;;;5092525;28;20040;-86
2021/07/30 05:38:47;;;;;;;12.98;5.00;;;14.90;78.30;;;;;;5092734;28;20063;-91
2021/07/30 05:41:15;;;;;;;11.60;5.13;;;14.90;78.30;;;;;;5092706;28;20044;-90
2021/07/30 05:43:43;;;;;;;11.68;4.72;;;14.90;78.40;;;;;;5092549;28;20052;-90
2021/07/30 05:46:13;;;;;;;11.23;5.60;;;14.90;78.40;;;;;;5094417;28;20412;-91
2021/07/30 05:48:40;;;;;;;12.18;4.97;;;15.00;78.50;;;;;;5093525;28;20073;-92
2021/07/30 05:51:08;;;;;;;9.50;5.15;;;15.00;78.60;;;;;;5092546;28;20097;-89
2021/07/30 05:53:36;;;;;;;10.48;5.43;;;15.10;78.50;;;;;;5090389;28;20475;-88
2021/07/30 05:56:03;;;;;;;13.38;5.30;;;15.10;78.50;;;;;;5091793;28;20036;-88
2021/07/30 05:58:31;;;;;;;10.15;5.22;;;15.20;78.50;;;;;;5092006;28;20109;-89
2021/07/30 06:00:59;;;;;;;9.57;4.93;;;15.20;78.40;;;;;;5091689;28;20101;-88
2021/07/30 06:03:26;;;;;;;15.98;5.68;;;15.20;78.40;;;;;;5091659;28;20055;-89
2021/07/30 06:05:53;;;;;;;12.82;4.72;;;15.20;78.40;;;;;;5091380;28;20050;-85
2021/07/30 06:08:20;;;;;;;8.50;4.57;;;15.30;78.40;;;;;;5091773;28;20094;-91
2021/07/30 06:10:46;;;;;;;12.45;5.18;;;15.30;78.40;;;;;;5091017;28;20072;-88
2021/07/30 06:13:13;;;;;;;12.80;5.13;;;15.30;78.40;;;;;;5092637;28;20105;-88
2021/07/30 06:15:40;;;;;;;8.05;5.05;;;15.40;78.60;;;;;;5091493;28;20055;-90
2021/07/30 06:18:07;;;;;;;8.88;4.65;;;15.40;78.70;;;;;;5091145;28;20048;-88
2021/07/30 06:20:34;;;;;;;11.75;5.75;;;15.40;78.70;;;;;;5091414;28;20452;-91
2021/07/30 06:23:01;;;;;;;8.52;5.00;;;15.40;78.70;;;;;;5091615;28;20479;-89
2021/07/30 06:25:28;;;;;;;13.43;4.72;;;15.50;78.80;;;;;;5093261;28;20055;-91
2021/07/30 06:27:55;;;;;;;12.77;4.63;;;15.60;78.80;;;;;;5089894;28;20047;-89
2021/07/30 06:30:22;;;;;;;9.68;4.63;;;15.80;78.80;;;;;;5092736;28;20090;-91
2021/07/30 06:32:49;;;;;;;7.85;4.40;;;15.80;78.50;;;;;;5091417;28;20101;-90
2021/07/30 06:35:16;;;;;;;8.55;4.32;;;15.80;78.30;;;;;;5091668;28;20047;-91
2021/07/30 06:37:43;;;;;;;8.60;4.28;;;15.90;78.10;;;;;;5091068;28;20052;-94
2021/07/30 06:40:10;;;;;;;12.77;4.43;;;16.00;78.00;;;;;;5088863;28;20478;-93
2021/07/30 06:42:38;;;;;;;15.13;4.45;;;16.00;78.00;;;;;;5091122;28;20048;-93
2021/07/30 06:45:06;;;;;;;7.57;4.38;;;16.10;77.80;;;;;;5093009;28;20097;-93
2021/07/30 06:47:34;;;;;;;12.55;4.50;;;16.10;77.70;;;;;;5089311;28;20048;-93
2021/07/30 06:50:03;;;;;;;9.57;4.32;;;16.20;77.60;;;;;;5089907;28;20083;-89
2021/07/30 06:52:33;;;;;;;8.93;4.20;;;16.30;77.60;;;;;;5091942;28;20101;-90
2021/07/30 06:55:01;;;;;;;11.95;4.80;;;16.30;77.60;;;;;;5092086;28;20063;-91
2021/07/30 06:57:28;;;;;;;8.75;4.00;;;16.40;77.50;;;;;;5130802;27;20092;-94
2021/07/30 06:59:54;;;;;;;10.38;4.40;;;16.40;77.40;;;;;;5098431;28;20082;-92
2021/07/30 07:02:21;;;;;;;15.55;5.07;;;16.40;77.20;;;;;;5089713;28;20040;-90
2021/07/30 07:04:49;;;;;;;10.30;3.67;;;16.40;77.00;;;;;;5090690;28;20417;-94
2021/07/30 07:07:15;;;;;;;9.40;4.00;;;16.50;77.00;;;;;;5093406;28;20406;-91
2021/07/30 07:09:42;;;;;;;10.52;4.50;;;16.50;76.90;;;;;;5091022;28;20059;-94
2021/07/30 07:12:09;;;;;;;7.90;4.10;;;16.60;76.80;;;;;;5092824;28;20048;-94
2021/07/30 07:14:37;;;;;;;6.50;3.80;;;16.60;76.70;;;;;;5091115;28;20056;-91
2021/07/30 07:17:04;;;;;;;5.80;3.90;;;16.60;76.70;;;;;;5090926;28;20472;-94
2021/07/30 07:19:31;;;;;;;9.32;3.92;;;16.70;76.70;;;;;;5091817;28;20052;-91
2021/07/30 07:21:59;;;;;;;11.32;4.15;;;16.80;76.50;;;;;;5091095;28;20055;-92
2021/07/30 07:24:26;;;;;;;10.48;4.30;;;16.80;76.50;;;;;;5090714;28;20060;-91
2021/07/30 07:26:53;;;;;;;9.38;4.10;;;16.80;76.50;;;;;;5122368;27;20506;-93
2021/07/30 07:29:21;;;;;;;7.75;4.07;;;16.90;76.40;;;;;;5089801;28;20097;-95
2021/07/30 07:31:48;;;;;;;9.82;4.03;;;16.90;76.40;;;;;;5090695;28;20052;-93
2021/07/30 07:34:15;;;;;;;7.68;4.00;;;17.00;76.30;;;;;;5102537;28;20104;-90
2021/07/30 07:36:42;;;;;;;8.35;3.92;;;17.10;76.00;;;;;;5091772;28;20105;-94
2021/07/30 07:39:08;;;;;;;9.63;4.35;;;17.20;76.00;;;;;;5090506;28;20048;-95
2021/07/30 07:41:35;;;;;;;8.50;4.45;;;17.20;75.80;;;;;;5090619;28;20044;-92
2021/07/30 07:44:02;;;;;;;7.80;4.03;;;17.30;75.80;;;;;;5089153;28;20063;-92
2021/07/30 07:46:29;;;;;;;8.45;3.85;;;17.40;75.60;;;;;;5091681;28;20052;-92
2021/07/30 07:48:56;;;;;;;11.32;3.88;;;17.40;75.60;;;;;;5090496;28;20052;-94
2021/07/30 07:51:23;;;;;;;13.05;4.18;;;17.50;75.50;;;;;;5088695;28;20040;-92
2021/07/30 07:53:50;;;;;;;11.27;4.00;;;17.60;75.40;;;;;;5121861;28;20510;-92
2021/07/30 07:56:17;;;;;;;8.25;3.67;;;17.70;75.30;;;;;;5088219;28;20051;-92
2021/07/30 07:58:44;;;;;;;8.45;4.13;;;17.80;75.40;;;;;;5089627;28;20056;-90
2021/07/30 08:01:15;;;;;;;9.65;3.95;;;17.90;75.20;;;;;;5091938;28;20105;-92
2021/07/30 08:03:44;;;;;;;9.15;4.13;;;17.90;74.90;;;;;;5088367;28;20044;-91
2021/07/30 08:06:18;;;;;;;5.55;3.65;;;18.00;74.20;;;;;;5090132;28;20044;-93
2021/07/30 08:08:49;;;;;;;6.43;3.55;;;18.00;73.70;;;;;;5089795;28;20055;-89
2021/07/30 08:11:17;;;;;;;8.32;3.50;;;18.10;73.80;;;;;;5089836;28;20040;-88
2021/07/30 08:13:44;;;;;;;7.25;4.00;;;18.20;73.90;;;;;;5088634;28;20421;-92
2021/07/30 08:16:11;;;;;;;9.82;3.85;;;18.20;73.90;;;;;;5091787;28;20105;-91
2021/07/30 08:18:38;;;;;;;7.22;4.00;;;18.20;74.10;;;;;;5089593;28;20055;-92
2021/07/30 08:21:05;;;;;;;7.07;4.05;;;18.30;74.10;;;;;;5090124;28;20040;-92
2021/07/30 08:23:36;;;;;;;6.30;3.65;;;18.40;74.00;;;;;;5089790;28;20051;-92
2021/07/30 08:26:02;;;;;;;9.20;4.03;;;18.40;73.90;;;;;;5090037;28;20047;-93
2021/07/30 08:28:29;;;;;;;7.25;3.80;;;18.50;73.70;;;;;;5091505;28;20048;-92
2021/07/30 08:30:56;;;;;;;9.57;3.75;;;18.60;73.70;;;;;;5089025;28;20055;-91
2021/07/30 08:33:23;;;;;;;7.03;3.88;;;18.60;73.20;;;;;;5091615;28;20377;-93
2021/07/30 08:35:50;;;;;;;6.70;3.78;;;18.60;73.40;;;;;;5100309;28;20112;-95
2021/07/30 08:38:17;;;;;;;9.25;3.90;;;18.60;73.30;;;;;;5093932;28;20047;-90
2021/07/30 08:40:44;;;;;;;9.68;3.75;;;18.70;73.30;;;;;;5092547;28;20052;-91
2021/07/30 08:43:15;;;;;;;9.27;3.50;;;18.70;73.20;;;;;;5095357;28;20052;-91
2021/07/30 08:45:50;;;;;;;8.18;4.00;;;18.70;73.20;;;;;;5092106;28;20090;-94
2021/07/30 08:48:18;;;;;;;7.95;4.13;;;18.80;73.20;;;;;;5093687;28;20098;-91
2021/07/30 08:50:46;;;;;;;6.55;3.53;;;18.80;73.30;;;;;;5090719;28;20483;-90
2021/07/30 08:53:24;;;;;;;7.40;3.65;;;18.80;73.10;;;;;;5093280;28;20044;-94
2021/07/30 08:55:52;;;;;;;9.02;3.40;;;18.80;73.00;;;;;;5093142;28;20036;-95
2021/07/30 08:58:20;;;;;;;5.95;3.58;;;18.90;73.40;;;;;;5095876;28;20083;-90
2021/07/30 09:00:47;;;;;;;6.80;3.75;;;18.90;73.40;;;;;;5094891;28;20101;-92
2021/07/30 09:03:15;;;;;;;7.97;3.40;;;18.90;73.60;;;;;;5095104;28;20524;-90
2021/07/30 09:05:42;;;;;;;6.43;3.58;;;19.00;73.80;;;;;;5103210;28;20047;-94
2021/07/30 09:08:09;;;;;;;9.10;3.47;;;19.10;73.90;;;;;;5106327;28;20049;-94
2021/07/30 09:10:40;;;;;;;6.90;3.30;;;19.10;74.00;;;;;;5108961;28;20044;-89
2021/07/30 09:13:22;;;;;;;10.45;3.90;;;19.20;73.70;;;;;;5113948;28;20391;-95
2021/07/30 09:16:10;;;;;;;7.32;3.67;;;19.20;73.70;;;;;;5110942;28;20078;-94
2021/07/30 09:18:43;;;;;;;7.80;3.45;;;19.30;73.70;;;;;;5108431;28;20075;-91
2021/07/30 09:21:33;;;;;;;9.13;4.10;;;19.30;73.60;;;;;;5105592;28;20554;-96
2021/07/30 09:24:04;;;;;;;10.68;3.90;;;19.30;73.60;;;;;;5104564;28;20047;-91
2021/07/30 09:26:31;;;;;;;8.93;3.85;;;19.30;74.00;;;;;;5106161;28;20052;-92
2021/07/30 09:29:00;;;;;;;6.55;3.92;;;19.30;74.50;;;;;;5100609;28;20097;-91
2021/07/30 09:31:39;;;;;;;6.63;3.85;;;19.20;75.10;;;;;;5102242;28;20101;-93
2021/07/30 09:34:32;;;;;;;7.05;4.13;;;19.00;75.40;;;;;;5104525;28;20074;-95
2021/07/30 09:37:08;;;;;;;10.13;4.35;;;18.90;75.70;;;;;;5097279;28;20079;-91
2021/07/30 09:39:38;;;;;;;6.68;3.85;;;18.80;76.10;;;;;;5096697;28;20052;-94
2021/07/30 09:42:10;;;;;;;8.52;3.88;;;18.70;76.50;;;;;;5095576;28;20077;-95
2021/07/30 09:44:59;;;;;;;9.25;4.22;;;18.60;77.00;;;;;;5091941;28;20052;-88
2021/07/30 09:47:35;;;;;;;12.38;4.20;;;18.50;77.50;;;;;;5090625;28;20051;-88
2021/07/30 09:50:04;;;;;;;7.70;4.13;;;18.50;78.00;;;;;;5077096;28;20070;-90
2021/07/30 09:52:40;;;;;;;9.43;3.88;;;18.40;78.70;;;;;;5094453;28;20140;-91
2021/07/30 09:55:12;;;;;;;6.20;3.42;;;18.40;79.70;;;;;;5092983;28;20101;-89
2021/07/30 09:57:43;;;;;;;5.30;3.63;;;18.40;79.90;;;;;;5091903;28;20502;-96
2021/07/30 10:00:13;;;;;;;6.50;4.03;;;18.30;80.10;;;;;;5092067;28;20074;-93
2021/07/30 10:02:44;;;;;;;7.25;3.53;;;18.20;80.30;;;;;;5093244;28;20452;-92
2021/07/30 10:05:18;;;;;;;6.22;4.22;;;18.20;80.40;;;;;;5092024;28;20082;-92
2021/07/30 10:07:45;;;;;;;9.85;4.00;;;18.10;80.40;;;;;;5092702;28;20063;-91
2021/07/30 10:10:20;;;;;;;8.32;3.92;;;18.10;80.70;;;;;;5094616;28;20052;-91
2021/07/30 10:12:56;;;;;;;9.85;4.35;;;18.10;80.80;;;;;;5091768;28;20051;-92
2021/07/30 10:15:23;;;;;;;8.82;4.07;;;18.10;80.80;;;;;;5092009;28;20051;-91
2021/07/30 10:17:58;;;;;;;8.90;4.30;;;18.10;80.90;;;;;;5093898;28;20051;-93
2021/07/30 10:20:26;;;;;;;7.55;4.80;;;18.10;81.40;;;;;;5095078;28;20078;-94
2021/07/30 10:22:55;;;;;;;9.90;4.60;;;18.20;81.50;;;;;;5100741;28;20055;-94
2021/07/30 10:25:28;;;;;;;8.85;4.90;;;18.20;82.00;;;;;;5098722;28;20105;-92
2021/07/30 10:27:58;;;;;;;8.63;4.63;;;18.20;82.10;;;;;;5091198;28;20052;-93
2021/07/30 10:30:25;;;;;;;7.35;4.55;;;18.30;82.00;;;;;;5095836;28;20044;-92
2021/07/30 10:32:58;;;;;;;9.43;4.43;;;18.40;82.00;;;;;;5101429;28;20509;-91
2021/07/30 10:35:29;;;;;;;6.10;4.20;;;18.50;81.90;;;;;;5099076;28;20048;-93
2021/07/30 10:38:17;;;;;;;8.73;3.75;;;18.50;81.30;;;;;;5076670;28;20055;-93
2021/07/30 10:41:05;;;;;;;9.23;4.10;;;18.60;80.80;;;;;;5092691;28;20475;-94
2021/07/30 10:44:01;;;;;;;5.80;3.88;;;18.60;80.50;;;;;;5097230;28;20097;-94
2021/07/30 10:46:28;;;;;;;7.70;3.65;;;18.60;80.20;;;;;;5093982;28;20044;-92
2021/07/30 10:48:55;;;;;;;5.68;3.60;;;18.50;80.10;;;;;;5091658;28;20072;-88
2021/07/30 10:51:29;;;;;;;5.90;3.63;;;18.50;80.00;;;;;;5091967;28;20044;-94
2021/07/30 10:54:04;;;;;;;9.93;4.07;;;18.50;80.10;;;;;;5099409;28;20074;-94
2021/07/30 10:56:31;;;;;;;6.72;4.30;;;18.40;80.20;;;;;;5100312;28;20573;-90
2021/07/30 10:58:58;;;;;;;7.53;4.00;;;18.40;80.30;;;;;;5092485;28;20055;-92
2021/07/30 11:01:28;;;;;;;6.97;3.72;;;18.40;80.80;;;;;;5098482;28;20036;-89
2021/07/30 11:03:58;;;;;;;11.60;4.15;;;18.40;80.90;;;;;;5097235;28;20044;-92
2021/07/30 11:06:39;;;;;;;6.78;3.80;;;18.40;81.20;;;;;;5092350;28;20101;-92
2021/07/30 11:09:06;;;;;;;14.80;4.00;;;18.50;81.80;;;;;;5091914;28;20052;-91
2021/07/30 11:11:36;;;;;;;6.60;3.70;;;18.50;81.70;;;;;;5093525;28;20066;-95
2021/07/30 11:14:14;;;;;;;18.65;4.05;;;18.60;81.90;;;;;;5101460;28;20044;-92
2021/07/30 11:16:46;;;;;;;6.95;3.28;;;18.60;81.70;;;;;;5092119;28;20055;-93
2021/07/30 11:19:15;;;;;;;6.93;3.13;;;18.60;81.00;;;;;;5091035;28;20055;-94
2021/07/30 11:21:44;;;;;;;13.20;3.10;;;18.60;81.10;;;;;;5091129;28;20122;-92
2021/07/30 11:24:12;;;;;;;6.07;2.97;;;18.60;81.50;;;;;;5090145;28;20041;-93
2021/07/30 11:26:41;;;;;;;4.47;2.50;;;18.60;81.00;;;;;;5090573;28;20052;-92
2021/07/30 11:29:26;;;;;;;6.57;2.38;;;18.60;80.80;;;;;;5091048;28;20079;-88
2021/07/30 11:31:59;;;;;;;5.35;2.53;;;18.60;80.80;;;;;;5091521;28;20059;-91
2021/07/30 11:34:37;;;;;;;6.65;2.33;;;18.70;80.90;;;;;;5090463;28;20052;-92
2021/07/30 11:37:05;;;;;;;6.43;2.40;;;18.80;80.90;;;;;;5094902;28;20055;-93
2021/07/30 11:39:34;;;;;;;5.35;2.40;;;18.90;81.10;;;;;;5094430;28;20048;-95
2021/07/30 11:42:02;;;;;;;7.60;2.08;;;19.00;81.20;;;;;;5102231;28;20035;-95
2021/07/30 11:44:29;;;;;;;5.88;2.03;;;19.20;80.20;;;;;;5096929;28;20032;-94
2021/07/30 11:46:58;;;;;;;6.15;1.77;;;19.30;79.70;;;;;;5080279;28;20078;-95
2021/07/30 11:49:34;;;;;;;3.33;1.73;;;19.50;79.20;;;;;;5083449;28;20048;-94
2021/07/30 11:52:23;;;;;;;4.90;1.75;;;19.70;78.20;;;;;;5102322;28;20052;-95
2021/07/30 11:54:50;;;;;;;5.13;1.60;;;19.90;77.40;;;;;;5102444;28;20048;-93
2021/07/30 11:57:27;;;;;;;3.97;1.17;;;20.20;76.70;;;;;;5107399;28;20607;-95
2021/07/30 11:59:55;;;;;;;5.05;1.42;;;20.40;75.80;;;;;;5105983;28;20044;-96
2021/07/30 12:02:28;;;;;;;4.68;1.38;;;20.60;75.40;;;;;;5100737;28;20068;-96
2021/07/30 12:04:56;;;;;;;5.72;1.15;;;20.90;73.00;;;;;;5087913;28;20055;-95
2021/07/30 12:07:43;;;;;;;3.75;1.15;;;21.00;72.20;;;;;;5107594;28;20044;-93
2021/07/30 12:10:16;;;;;;;6.45;1.30;;;21.20;72.00;;;;;;5111002;28;20105;-94
2021/07/30 12:12:44;;;;;;;6.88;1.52;;;21.40;71.80;;;;;;5112348;28;20047;-96
2021/07/30 12:15:12;;;;;;;3.80;1.10;;;21.50;69.90;;;;;;5104094;28;20048;-96
2021/07/30 12:17:40;;;;;;;6.18;1.60;;;21.70;67.80;;;;;;5107316;28;20071;-95
2021/07/30 12:20:13;;;;;;;4.82;1.35;;;21.80;67.70;;;;;;5104985;28;20136;-95
2021/07/30 12:22:45;;;;;;;4.40;1.40;;;21.90;65.20;;;;;;5108650;28;20052;-94
2021/07/30 12:25:37;;;;;;;4.95;1.50;;;22.10;65.10;;;;;;5109660;28;20071;-96
2021/07/30 12:28:14;;;;;;;5.78;1.77;;;22.20;64.10;;;;;;5111182;28;20047;-95
2021/07/30 12:30:48;;;;;;;8.13;1.77;;;22.40;64.10;;;;;;5100373;28;20101;-95
2021/07/30 12:33:22;;;;;;;5.03;1.50;;;22.40;62.90;;;;;;5104111;28;20044;-96
2021/07/30 12:36:00;;;;;;;8.68;1.77;;;22.50;62.40;;;;;;5097096;28;20106;-94
2021/07/30 12:38:28;;;;;;;8.73;1.70;;;22.50;62.10;;;;;;5102591;28;20040;-94
2021/07/30 12:41:15;;;;;;;7.10;1.60;;;22.50;62.10;;;;;;5086161;28;20048;-94
2021/07/30 12:43:44;;;;;;;6.50;1.60;;;22.70;62.60;;;;;;5098854;28;20048;-93
2021/07/30 12:46:30;;;;;;;8.13;1.67;;;22.70;60.40;;;;;;5099602;28;20113;-91
2021/07/30 12:48:57;;;;;;;6.68;1.85;;;22.60;60.30;;;;;;5096435;28;20059;-92
2021/07/30 12:51:25;;;;;;;9.52;1.60;;;22.50;60.20;;;;;;5123264;27;20040;-94
2021/07/30 12:54:04;;;;;;;5.35;1.30;;;22.50;60.80;;;;;;5095808;28;20040;-93